Time;durP1;ratioP1;P1;durP2;ratioP2;P2;SDS_P1;SDS_P2;PMS_P1;PMS_P2;Temp;Humidity;BMP_temperature;BMP_pressure;BME280_temperature;BME280_humidity;BME280_pressure;Samples;Min_cycle;Max_cycle;Signal;HPM_P1;HPM_P2
2022/04/06 00:01:48;;;;;;;18.30;11.55;;;;;;;16.20;42.13;92608.47;5029771;28;20049;-86
2022/04/06 00:04:14;;;;;;;17.45;12.57;;;;;;;16.19;42.24;92605.00;5042573;28;20089;-86
2022/04/06 00:06:39;;;;;;;18.25;13.10;;;;;;;16.17;42.11;92599.31;5049447;28;20044;-85
2022/04/06 00:09:05;;;;;;;18.13;12.32;;;;;;;16.18;42.22;92602.78;5023505;28;20032;-87
2022/04/06 00:11:30;;;;;;;18.27;12.27;;;;;;;16.18;42.25;92602.78;5049548;28;20375;-84
2022/04/06 00:13:56;;;;;;;13.85;11.18;;;;;;;16.17;42.31;92602.06;5066981;28;20040;-87
2022/04/06 00:16:21;;;;;;;18.38;12.60;;;;;;;16.17;42.49;92595.88;5049394;28;20037;-85
2022/04/06 00:18:47;;;;;;;17.45;12.25;;;;;;;16.17;42.21;92596.59;5032874;28;20490;-87
2022/04/06 00:21:12;;;;;;;17.55;11.90;;;;;;;16.17;42.48;92595.88;5032186;28;20048;-87
2022/04/06 00:23:38;;;;;;;19.23;11.80;;;;;;;16.19;42.57;92596.09;5066130;28;20044;-85
2022/04/06 00:26:03;;;;;;;17.00;12.27;;;;;;;16.19;42.32;92594.09;5048953;28;20075;-86
2022/04/06 00:28:29;;;;;;;15.88;11.73;;;;;;;16.19;42.35;92588.66;5048525;28;20036;-86
2022/04/06 00:30:54;;;;;;;15.52;11.35;;;;;;;16.21;42.38;92597.03;5032470;28;20143;-86
2022/04/06 00:33:20;;;;;;;15.25;10.43;;;;;;;16.17;42.33;92585.69;5048425;28;20037;-85
2022/04/06 00:35:46;;;;;;;15.85;11.32;;;;;;;16.19;42.45;92593.34;5032359;28;20494;-85
2022/04/06 00:38:11;;;;;;;14.18;10.45;;;;;;;16.18;42.46;92589.16;5066537;28;20474;-87
2022/04/06 00:40:37;;;;;;;15.20;10.32;;;;;;;16.14;42.31;92591.44;5030367;28;20050;-85
2022/04/06 00:43:08;;;;;;;14.15;10.57;;;;;;;16.15;42.47;92590.19;5025538;28;20108;-85
2022/04/06 00:45:34;;;;;;;14.93;10.63;;;;;;;16.17;42.76;92585.69;5030708;28;20124;-86
2022/04/06 00:47:59;;;;;;;15.50;11.13;;;;;;;16.18;42.65;92584.44;5045737;28;20467;-87
2022/04/06 00:50:25;;;;;;;14.77;10.43;;;;;;;16.16;42.34;92576.03;5028530;28;20484;-87
2022/04/06 00:52:55;;;;;;;14.20;10.55;;;;;;;16.17;42.48;92579.50;5029313;28;20033;-87
2022/04/06 00:55:21;;;;;;;14.82;10.23;;;;;;;16.18;42.41;92583.69;5028809;28;20061;-84
2022/04/06 00:57:46;;;;;;;14.50;10.15;;;;;;;16.14;42.70;92572.34;5012959;28;20060;-84
2022/04/06 01:00:13;;;;;;;14.43;10.32;;;;;;;16.14;42.54;92575.06;5028079;28;20060;-88
2022/04/06 01:02:39;;;;;;;14.38;9.90;;;;;;;16.15;42.74;92571.84;5012970;28;20119;-84
2022/04/06 01:05:05;;;;;;;16.20;10.80;;;;;;;16.13;42.63;92579.78;5046922;28;20044;-85
2022/04/06 01:07:30;;;;;;;16.55;10.35;;;;;;;16.17;42.45;92565.88;5045584;28;20124;-85
2022/04/06 01:09:56;;;;;;;14.55;9.57;;;;;;;16.15;42.63;92574.56;5045118;28;20091;-85
2022/04/06 01:12:22;;;;;;;14.30;10.20;;;;;;;16.19;42.32;92574.28;5043010;28;20226;-87
2022/04/06 01:14:47;;;;;;;14.48;9.95;;;;;;;16.17;42.56;92568.59;5009589;28;20044;-86
2022/04/06 01:17:13;;;;;;;13.10;9.10;;;;;;;16.18;42.54;92564.63;5026651;28;20044;-88
2022/04/06 01:19:41;;;;;;;13.95;9.75;;;;;;;16.15;42.48;92563.66;5025462;28;20037;-87
2022/04/06 01:22:16;;;;;;;12.30;8.77;;;;;;;16.11;42.69;92574.84;5008467;28;20034;-87
2022/04/06 01:24:41;;;;;;;17.23;9.27;;;;;;;16.18;42.47;92562.63;4993839;28;20029;-85
2022/04/06 01:27:07;;;;;;;14.00;9.20;;;;;;;16.16;42.27;92558.94;5008710;28;20156;-84
2022/04/06 01:29:32;;;;;;;11.35;7.97;;;;;;;16.17;42.35;92560.41;5009236;28;20523;-85
2022/04/06 01:32:17;;;;;;;13.23;8.55;;;;;;;16.15;42.40;92562.91;4992047;28;20500;-84
2022/04/06 01:34:43;;;;;;;12.52;8.70;;;;;;;16.14;42.71;92558.72;5025232;28;20042;-84
2022/04/06 01:37:09;;;;;;;12.68;7.88;;;;;;;16.16;42.69;92565.13;4994536;28;20411;-86
2022/04/06 01:39:34;;;;;;;11.35;8.10;;;;;;;16.17;42.33;92560.41;5045668;28;20488;-85
2022/04/06 01:42:00;;;;;;;11.57;8.38;;;;;;;16.16;42.38;92561.66;5048633;28;20049;-85
2022/04/06 01:44:25;;;;;;;11.63;8.20;;;;;;;16.15;42.54;92557.47;5028650;28;20037;-86
2022/04/06 01:46:50;;;;;;;13.02;9.00;;;;;;;16.15;42.48;92562.91;5044488;28;20060;-86
2022/04/06 01:52:12;;;;;;;10.60;8.13;;;;;;;16.17;42.69;92563.16;5049620;28;20375;-87
2022/04/06 01:54:41;;;;;;;13.18;8.68;;;;;;;16.15;42.69;92565.66;5048829;28;20037;-85
2022/04/06 01:57:06;;;;;;;11.20;8.00;;;;;;;16.13;42.55;92577.06;5048784;28;20033;-83
2022/04/06 01:59:32;;;;;;;11.52;7.50;;;;;;;16.15;42.52;92560.94;5032428;28;20471;-84
2022/04/06 02:01:57;;;;;;;12.15;8.40;;;;;;;16.14;42.49;92569.63;5033871;28;20040;-86
2022/04/06 02:04:22;;;;;;;12.10;8.05;;;;;;;16.15;42.61;92571.84;5015219;28;20041;-85
2022/04/06 02:06:48;;;;;;;13.27;7.70;;;;;;;16.13;42.35;92571.63;5031958;28;20049;-86
2022/04/06 02:09:13;;;;;;;9.07;6.97;;;;;;;16.11;42.43;92572.13;5048187;28;20037;-85
2022/04/06 02:11:39;;;;;;;11.23;8.05;;;;;;;16.13;42.68;92571.63;5048589;28;20053;-86
2022/04/06 02:14:04;;;;;;;10.13;7.50;;;;;;;16.16;42.42;92567.84;5048343;28;20045;-84
2022/04/06 02:16:30;;;;;;;9.52;7.28;;;;;;;16.17;42.63;92572.06;5046663;28;20352;-85
2022/04/06 02:18:55;;;;;;;11.30;7.63;;;;;;;16.13;42.54;92579.06;5047212;28;20041;-84
2022/04/06 02:21:20;;;;;;;11.30;7.10;;;;;;;16.15;42.69;92565.66;5047654;28;20048;-86
2022/04/06 02:23:46;;;;;;;10.35;7.20;;;;;;;16.13;42.47;92560.72;5048087;28;20045;-84
2022/04/06 02:26:11;;;;;;;10.38;7.13;;;;;;;16.14;42.41;92569.63;5030549;28;20033;-86
2022/04/06 02:28:37;;;;;;;10.98;7.60;;;;;;;16.10;42.70;92559.75;5032422;28;20037;-85
2022/04/06 02:31:02;;;;;;;10.27;7.28;;;;;;;16.16;42.39;92569.84;5064298;28;20033;-84
2022/04/06 02:33:27;;;;;;;12.35;7.47;;;;;;;16.16;42.50;92567.84;5048361;28;20322;-86
2022/04/06 02:35:53;;;;;;;11.15;7.55;;;;;;;16.13;42.37;92566.16;5048173;28;20396;-84
2022/04/06 02:38:18;;;;;;;10.30;7.28;;;;;;;16.14;42.83;92570.38;5044758;28;20508;-84
2022/04/06 02:40:43;;;;;;;10.00;6.78;;;;;;;16.15;42.47;92574.56;5036218;28;20041;-88
2022/04/06 02:43:09;;;;;;;9.73;6.45;;;;;;;16.12;42.58;92572.88;5067814;28;20032;-87
2022/04/06 02:45:34;;;;;;;8.80;6.57;;;;;;;16.15;42.79;92573.81;5034598;28;20497;-86
2022/04/06 02:48:00;;;;;;;9.02;6.97;;;;;;;16.16;42.54;92578.75;5034735;28;20040;-86
2022/04/06 02:50:25;;;;;;;10.10;7.25;;;;;;;16.11;42.45;92574.84;5052731;28;20116;-85
2022/04/06 02:52:50;;;;;;;9.38;6.65;;;;;;;16.15;42.47;92574.56;5034808;28;20058;-83
2022/04/06 02:55:16;;;;;;;8.88;6.50;;;;;;;16.14;42.50;92572.34;5050325;28;20040;-84
2022/04/06 02:57:42;;;;;;;9.52;6.78;;;;;;;16.12;42.45;92570.13;5034657;28;20037;-85
2022/04/06 03:00:08;;;;;;;10.13;7.32;;;;;;;16.14;42.39;92575.81;5017626;28;20404;-87
2022/04/06 03:02:34;;;;;;;8.45;6.10;;;;;;;16.14;42.60;92573.09;5030967;28;20450;-86
2022/04/06 03:04:59;;;;;;;9.77;6.95;;;;;;;16.10;42.62;92570.66;5028307;28;20044;-86
2022/04/06 03:07:24;;;;;;;8.82;6.38;;;;;;;16.13;42.68;92571.63;5033637;28;20075;-84
2022/04/06 03:09:50;;;;;;;8.68;6.72;;;;;;;16.11;42.56;92561.22;5034383;28;20044;-86
2022/04/06 03:12:15;;;;;;;8.93;6.10;;;;;;;16.13;42.61;92568.88;5066469;28;20048;-86
2022/04/06 03:14:41;;;;;;;8.25;5.95;;;;;;;16.15;42.47;92568.38;5051096;28;20036;-87
2022/04/06 03:17:06;;;;;;;9.07;6.40;;;;;;;16.10;42.64;92556.28;5068333;28;20040;-84
2022/04/06 03:19:32;;;;;;;8.35;5.88;;;;;;;16.13;42.57;92559.97;5050896;28;20040;-85
2022/04/06 03:21:57;;;;;;;8.77;6.22;;;;;;;16.14;42.73;92570.38;5019802;28;20037;-88
2022/04/06 03:24:22;;;;;;;8.05;5.45;;;;;;;16.13;42.50;92571.63;5008409;28;20117;-86
2022/04/06 03:26:48;;;;;;;8.95;6.55;;;;;;;16.15;42.73;92565.66;5009201;28;20556;-85
2022/04/06 03:29:13;;;;;;;8.05;5.60;;;;;;;16.13;42.56;92568.16;4975970;28;20046;-87
2022/04/06 03:31:40;;;;;;;10.35;6.13;;;;;;;16.10;42.59;92562.47;5009432;28;20038;-86
2022/04/06 03:34:05;;;;;;;8.00;5.68;;;;;;;16.13;43.20;92568.16;4992800;28;20041;-84
2022/04/06 03:36:30;;;;;;;8.32;5.68;;;;;;;16.15;42.55;92574.56;4991381;28;20044;-84
2022/04/06 03:38:56;;;;;;;9.07;6.28;;;;;;;16.13;42.57;92566.16;4993407;28;20034;-87
2022/04/06 03:41:21;;;;;;;9.45;6.30;;;;;;;16.14;42.33;92570.38;5008421;28;20056;-84
2022/04/06 03:43:47;;;;;;;11.55;5.50;;;;;;;16.09;42.46;92563.00;5008774;28;20440;-84
2022/04/06 03:46:14;;;;;;;8.55;5.80;;;;;;;16.10;42.77;92557.03;4991489;28;20044;-87
2022/04/06 03:48:39;;;;;;;9.40;5.45;;;;;;;16.15;42.86;92554.75;5009187;28;20067;-85
2022/04/06 03:51:05;;;;;;;13.85;5.50;;;;;;;16.18;42.60;92561.88;4976195;28;20488;-84
2022/04/06 03:53:30;;;;;;;7.25;5.32;;;;;;;16.19;42.32;92557.91;5027047;28;20041;-85
2022/04/06 03:55:56;;;;;;;10.50;5.55;;;;;;;16.18;42.31;92556.44;5010532;28;20041;-85
2022/04/06 03:58:21;;;;;;;9.55;6.03;;;;;;;16.18;42.41;92556.44;5026250;28;20044;-84
2022/04/06 04:00:46;;;;;;;6.95;5.18;;;;;;;16.13;43.17;92552.53;5027089;28;20038;-87
2022/04/06 04:03:12;;;;;;;11.35;6.35;;;;;;;16.13;42.95;92547.06;5042432;28;20368;-85
2022/04/06 04:05:37;;;;;;;11.75;6.25;;;;;;;16.10;42.76;92543.38;5017057;28;20091;-85
2022/04/06 04:08:03;;;;;;;8.75;6.55;;;;;;;16.10;42.72;92548.09;5029559;28;20059;-86
2022/04/06 04:10:29;;;;;;;10.43;7.05;;;;;;;16.09;42.73;92552.81;5047765;28;20037;-85
2022/04/06 04:12:54;;;;;;;12.00;6.32;;;;;;;16.11;42.75;92557.75;5045997;28;20122;-85
2022/04/06 04:15:20;;;;;;;9.40;6.55;;;;;;;16.14;42.70;92556.72;5012248;28;20035;-85
2022/04/06 04:17:45;;;;;;;10.75;5.93;;;;;;;16.11;42.68;92557.75;5046272;28;20124;-85
2022/04/06 04:20:11;;;;;;;7.53;5.30;;;;;;;16.14;42.42;92562.19;5045514;28;20777;-86
2022/04/06 04:22:36;;;;;;;9.13;6.15;;;;;;;16.10;42.56;92559.75;5046441;28;20438;-85
2022/04/06 04:25:02;;;;;;;8.70;6.10;;;;;;;16.12;42.64;92553.78;5046202;28;20041;-84
2022/04/06 04:27:27;;;;;;;12.65;6.70;;;;;;;16.11;42.54;92555.03;5044909;28;20032;-86
2022/04/06 04:29:52;;;;;;;14.52;8.25;;;;;;;16.11;42.44;92547.59;5029646;28;20037;-84
2022/04/06 04:32:18;;;;;;;37.53;18.85;;;;;;;16.09;42.71;92550.09;5046619;28;20574;-85
2022/04/06 04:34:43;;;;;;;44.10;25.00;;;;;;;16.11;42.48;92560.47;5037997;28;20041;-86
2022/04/06 04:37:09;;;;;;;76.72;32.58;;;;;;;16.11;42.74;92539.41;5007872;28;20037;-86
2022/04/06 04:39:34;;;;;;;111.95;77.68;;;;;;;16.20;42.36;92535.59;5044828;28;20424;-87
2022/04/06 04:42:00;;;;;;;146.25;90.30;;;;;;;16.22;42.22;92543.97;5064788;28;20396;-86
2022/04/06 04:44:25;;;;;;;77.38;39.75;;;;;;;16.21;42.64;92530.88;5033535;28;20044;-88
2022/04/06 04:46:51;;;;;;;46.38;27.52;;;;;;;16.23;42.57;92533.81;5031900;28;20064;-87
2022/04/06 04:49:16;;;;;;;49.00;29.60;;;;;;;16.27;42.36;92531.50;5040928;28;20045;-85
2022/04/06 04:51:41;;;;;;;70.78;40.70;;;;;;;16.25;42.55;92534.75;5061691;28;20454;-84
2022/04/06 04:54:07;;;;;;;61.58;32.47;;;;;;;16.25;42.18;92520.38;5024860;28;20086;-84
2022/04/06 04:56:33;;;;;;;68.22;33.63;;;;;;;16.26;42.70;92528.03;5016820;28;20044;-85
2022/04/06 04:58:59;;;;;;;41.22;23.75;;;;;;;16.11;43.50;92522.31;5036780;28;20053;-84
2022/04/06 05:01:25;;;;;;;50.25;26.10;;;;;;;16.15;43.60;92524.75;5014008;28;20741;-87
2022/04/06 05:03:51;;;;;;;64.72;30.00;;;;;;;16.10;43.45;92520.84;5032388;28;20044;-86
2022/04/06 05:06:17;;;;;;;63.88;32.05;;;;;;;16.11;43.41;92520.31;5052291;28;20036;-86
2022/04/06 05:08:43;;;;;;;69.65;36.25;;;;;;;16.13;43.85;92529.97;5030507;28;20496;-88
2022/04/06 05:11:08;;;;;;;47.45;24.98;;;;;;;15.97;44.04;92529.69;5030593;28;20404;-87
2022/04/06 05:13:34;;;;;;;55.60;26.95;;;;;;;15.99;44.11;92529.19;5015965;28;20121;-88
2022/04/06 05:16:00;;;;;;;76.20;28.83;;;;;;;16.00;44.10;92522.47;5019439;28;20045;-85
2022/04/06 05:18:26;;;;;;;60.88;29.02;;;;;;;15.97;43.53;92526.25;5012457;28;20119;-83
2022/04/06 05:20:53;;;;;;;76.47;40.95;;;;;;;15.88;43.57;92538.22;5029344;28;20032;-87
2022/04/06 05:23:18;;;;;;;93.00;44.85;;;;;;;15.90;43.78;92537.72;5046584;28;20036;-86
2022/04/06 05:25:44;;;;;;;92.53;48.20;;;;;;;15.91;43.42;92541.91;5037370;28;20094;-84
2022/04/06 05:28:09;;;;;;;90.35;50.38;;;;;;;15.96;43.53;92539.13;5013029;28;20048;-88
2022/04/06 05:30:37;;;;;;;98.18;52.60;;;;;;;15.97;43.70;92548.78;5014663;28;20053;-86
2022/04/06 05:33:03;;;;;;;96.78;53.40;;;;;;;16.05;43.23;92548.91;5049355;28;20045;-86
2022/04/06 05:35:28;;;;;;;94.10;53.17;;;;;;;16.08;43.13;92547.88;5043765;28;20033;-86
2022/04/06 05:37:57;;;;;;;93.22;53.03;;;;;;;16.07;43.33;92549.88;5045112;28;20403;-88
2022/04/06 05:40:22;;;;;;;97.18;56.35;;;;;;;16.11;43.35;92552.31;5027777;28;20052;-88
2022/04/06 05:42:48;;;;;;;106.47;58.92;;;;;;;16.11;43.19;92555.03;5026915;28;20037;-88
2022/04/06 05:45:15;;;;;;;104.30;54.72;;;;;;;16.10;43.34;92561.72;5038868;28;20082;-85
2022/04/06 05:47:42;;;;;;;84.63;49.13;;;;;;;16.08;43.45;92553.34;5011167;28;20041;-85
2022/04/06 05:50:08;;;;;;;92.55;56.97;;;;;;;16.07;43.51;92549.13;5029153;28;20069;-87
2022/04/06 05:52:34;;;;;;;94.75;56.15;;;;;;;16.06;43.31;92553.84;5002851;28;20128;-86
2022/04/06 05:54:59;;;;;;;114.38;65.07;;;;;;;16.10;43.15;92548.84;5004538;28;20169;-85
2022/04/06 05:57:25;;;;;;;118.93;66.28;;;;;;;16.16;43.01;92545.31;4990294;28;20052;-86
2022/04/06 05:59:50;;;;;;;137.00;76.38;;;;;;;16.16;43.10;92548.78;4981700;28;20102;-87
2022/04/06 06:02:15;;;;;;;148.30;82.20;;;;;;;16.19;42.91;92544.28;5019421;28;20033;-85
2022/04/06 06:04:41;;;;;;;168.63;83.85;;;;;;;16.19;42.98;92547.00;5021075;28;20123;-87
2022/04/06 06:07:07;;;;;;;127.95;73.50;;;;;;;16.19;43.02;92544.28;4989880;28;20344;-86
2022/04/06 06:09:32;;;;;;;113.88;67.07;;;;;;;16.21;43.21;92534.34;4996297;28;20050;-85
2022/04/06 06:11:59;;;;;;;225.02;81.43;;;;;;;16.34;43.13;92536.38;5013701;28;20048;-84
2022/04/06 06:14:25;;;;;;;233.65;99.50;;;;;;;16.41;42.58;92531.06;4979703;28;20048;-84
2022/04/06 06:16:51;;;;;;;195.65;89.13;;;;;;;16.46;41.53;92530.22;5000573;28;20052;-82
2022/04/06 06:19:16;;;;;;;222.80;92.53;;;;;;;16.43;40.82;92536.72;4991899;28;20132;-84
2022/04/06 06:21:42;;;;;;;226.52;92.28;;;;;;;16.41;40.55;92538.50;4988742;28;20106;-82
2022/04/06 06:24:07;;;;;;;217.02;92.50;;;;;;;16.41;40.46;92546.69;5007810;28;20841;-84
2022/04/06 06:26:33;;;;;;;209.52;90.70;;;;;;;16.38;41.16;92543.00;4976599;28;20630;-85
2022/04/06 06:28:59;;;;;;;208.98;88.22;;;;;;;16.35;40.71;92548.75;4994148;28;20045;-85
2022/04/06 06:31:25;;;;;;;191.68;87.53;;;;;;;16.39;40.82;92543.75;5028377;28;20044;-84
2022/04/06 06:33:51;;;;;;;177.13;78.53;;;;;;;16.36;41.23;92548.22;5029970;28;20090;-87
2022/04/06 06:36:17;;;;;;;159.07;77.30;;;;;;;16.39;41.54;92546.47;5036599;28;20032;-88
2022/04/06 06:38:42;;;;;;;151.43;77.72;;;;;;;16.39;41.89;92538.28;5021368;28;20037;-86
2022/04/06 06:41:07;;;;;;;145.70;77.40;;;;;;;16.34;41.99;92530.91;5031783;28;20037;-85
2022/04/06 06:43:33;;;;;;;141.50;75.70;;;;;;;16.36;41.67;92539.31;5048389;28;20404;-86
2022/04/06 06:45:58;;;;;;;154.73;74.72;;;;;;;16.34;41.60;92539.09;5030909;28;20035;-86
2022/04/06 06:48:24;;;;;;;142.77;73.82;;;;;;;16.34;41.97;92534.38;5028540;28;20049;-86
2022/04/06 06:50:49;;;;;;;162.32;90.88;;;;;;;16.33;42.07;92537.63;5026456;28;20057;-86
2022/04/06 06:53:15;;;;;;;129.38;71.13;;;;;;;16.33;42.03;92540.34;5028379;28;20060;-87
2022/04/06 06:55:40;;;;;;;131.27;72.88;;;;;;;16.31;42.14;92543.59;5054290;28;20485;-85
2022/04/06 06:58:05;;;;;;;153.48;85.63;;;;;;;16.38;41.74;92537.53;5050360;28;20999;-84
2022/04/06 07:00:31;;;;;;;164.00;90.78;;;;;;;16.37;41.83;92535.34;5031278;28;20152;-85
2022/04/06 07:02:56;;;;;;;164.88;86.38;;;;;;;16.38;41.75;92548.47;5043996;28;20400;-85
2022/04/06 07:05:22;;;;;;;219.43;128.02;;;;;;;16.35;41.90;92538.56;5031989;28;20037;-87
2022/04/06 07:07:54;;;;;;;209.95;120.38;;;;;;;16.34;41.95;92545.28;5030440;28;20041;-86
2022/04/06 07:10:21;;;;;;;208.95;118.13;;;;;;;16.37;42.23;92529.88;5043300;28;20136;-86
2022/04/06 07:12:46;;;;;;;182.50;104.65;;;;;;;16.36;42.16;92531.88;5028614;28;20551;-85
2022/04/06 07:15:13;;;;;;;189.80;104.40;;;;;;;16.36;42.23;92529.16;4990313;28;20094;-85
2022/04/06 07:17:38;;;;;;;165.25;100.22;;;;;;;16.35;41.98;92535.13;4979733;28;20050;-87
2022/04/06 07:20:04;;;;;;;172.20;106.13;;;;;;;16.40;41.85;92534.31;5030543;28;20504;-87
2022/04/06 07:22:30;;;;;;;268.15;154.05;;;;;;;16.38;41.96;92532.09;5022659;28;20085;-86
2022/04/06 07:24:56;;;;;;;239.10;143.23;;;;;;;16.39;42.19;92522.66;4991109;28;20045;-86
2022/04/06 07:27:22;;;;;;;217.00;124.60;;;;;;;16.36;42.35;92518.22;5016602;28;22284;-84
2022/04/06 07:29:47;;;;;;;193.55;111.47;;;;;;;16.36;42.20;92523.69;5024199;28;20493;-88
2022/04/06 07:32:14;;;;;;;182.77;105.70;;;;;;;16.36;41.87;92520.97;4989137;28;20475;-85
2022/04/06 07:34:39;;;;;;;204.18;115.05;;;;;;;16.35;42.02;92522.22;4997211;28;20056;-87
2022/04/06 07:37:04;;;;;;;197.55;112.32;;;;;;;16.39;42.15;92528.09;5034752;28;20045;-89
2022/04/06 07:39:30;;;;;;;177.35;105.88;;;;;;;16.36;42.23;92531.13;5004330;28;20045;-86
2022/04/06 07:41:58;;;;;;;179.63;106.07;;;;;;;16.41;41.87;92525.59;4976852;28;20045;-86
2022/04/06 07:44:25;;;;;;;182.55;99.63;;;;;;;16.45;42.09;92525.31;5007629;28;20049;-88
2022/04/06 07:46:51;;;;;;;171.55;99.72;;;;;;;16.43;42.12;92525.09;5033186;28;20049;-85
2022/04/06 07:49:17;;;;;;;157.00;96.47;;;;;;;16.39;41.96;92522.66;5010361;28;20107;-86
2022/04/06 07:51:42;;;;;;;160.15;92.13;;;;;;;16.43;42.11;92528.56;5016142;28;20144;-86
2022/04/06 07:54:08;;;;;;;152.30;92.50;;;;;;;16.43;42.24;92534.00;5032310;28;20750;-88
2022/04/06 07:56:33;;;;;;;153.60;91.00;;;;;;;16.43;42.17;92538.72;5032873;28;20424;-88
2022/04/06 07:58:59;;;;;;;157.82;92.63;;;;;;;16.44;41.70;92540.94;5047724;28;20047;-90
2022/04/06 08:01:24;;;;;;;223.63;125.43;;;;;;;16.43;41.99;92527.81;5016599;28;20432;-90
2022/04/06 08:03:50;;;;;;;280.17;166.57;;;;;;;16.47;41.82;92539.13;5034009;28;20041;-86
2022/04/06 08:06:16;;;;;;;237.98;137.90;;;;;;;16.44;42.01;92534.75;5042924;28;20033;-84
2022/04/06 08:08:41;;;;;;;195.73;112.18;;;;;;;16.43;42.00;92536.00;5030690;28;20041;-85
2022/04/06 08:11:08;;;;;;;195.00;112.85;;;;;;;16.43;42.32;92533.28;5040576;28;20067;-84
2022/04/06 08:13:33;;;;;;;186.38;107.05;;;;;;;16.47;42.08;92536.41;5030293;28;20075;-88
2022/04/06 08:15:59;;;;;;;200.18;117.97;;;;;;;16.49;42.29;92539.34;5046708;28;20143;-88
2022/04/06 08:18:25;;;;;;;199.02;117.35;;;;;;;16.52;42.15;92534.84;5029452;28;20052;-86
2022/04/06 08:20:51;;;;;;;180.73;104.90;;;;;;;16.50;42.08;92545.56;5026720;28;20139;-87
2022/04/06 08:23:18;;;;;;;182.77;107.60;;;;;;;16.49;42.12;92542.09;5042248;28;20076;-86
2022/04/06 08:25:44;;;;;;;204.95;115.43;;;;;;;16.49;42.23;92544.81;5013077;28;20041;-85
2022/04/06 08:28:10;;;;;;;203.25;116.82;;;;;;;16.50;42.17;92534.63;5007814;28;20045;-85
2022/04/06 08:30:40;;;;;;;174.55;108.32;;;;;;;16.48;42.16;92540.63;5053879;28;20044;-87
2022/04/06 08:33:06;;;;;;;185.52;115.18;;;;;;;16.52;41.73;92538.31;5025766;28;20053;-87
2022/04/06 08:35:31;;;;;;;198.00;113.38;;;;;;;16.51;42.15;92536.13;5026875;28;20098;-86
2022/04/06 08:37:57;;;;;;;223.60;129.35;;;;;;;16.51;42.13;92550.50;5011705;28;20037;-87
2022/04/06 08:40:22;;;;;;;200.65;111.57;;;;;;;16.51;41.87;92542.31;5018596;28;20086;-86
2022/04/06 08:42:48;;;;;;;204.00;124.22;;;;;;;16.51;41.88;92544.28;5043064;28;20344;-86
2022/04/06 08:45:13;;;;;;;239.60;142.27;;;;;;;16.52;41.97;92538.31;5025598;28;20033;-90
2022/04/06 08:47:39;;;;;;;224.57;130.90;;;;;;;16.53;41.72;92544.50;5025535;28;20045;-85
2022/04/06 08:50:05;;;;;;;242.73;140.88;;;;;;;16.53;42.06;92536.34;5011936;28;20037;-86
2022/04/06 08:52:34;;;;;;;204.32;118.18;;;;;;;16.52;43.06;92537.59;5015436;28;20613;-84
2022/04/06 08:54:59;;;;;;;271.10;166.48;;;;;;;16.53;42.28;92542.53;5028584;28;20526;-86
2022/04/06 08:57:26;;;;;;;260.60;157.13;;;;;;;16.53;42.16;92539.06;5027348;28;20145;-84
2022/04/06 08:59:51;;;;;;;247.25;137.70;;;;;;;16.53;42.42;92533.59;5030270;28;20041;-88
2022/04/06 09:02:20;;;;;;;296.90;174.77;;;;;;;16.58;42.30;92538.97;5044256;28;20029;-85
2022/04/06 09:04:52;;;;;;;443.08;279.30;;;;;;;16.56;42.26;92527.84;5030117;28;20527;-86
2022/04/06 09:07:19;;;;;;;454.27;275.60;;;;;;;16.55;42.09;92529.09;5032023;28;20029;-87
2022/04/06 09:09:48;;;;;;;315.63;193.80;;;;;;;16.54;42.27;92533.09;5030586;28;20040;-86
2022/04/06 09:12:17;;;;;;;291.05;173.35;;;;;;;16.57;42.03;92531.31;5023774;28;20541;-88
2022/04/06 09:14:43;;;;;;;285.73;169.38;;;;;;;16.54;42.54;92527.63;5028229;28;20036;-86
2022/04/06 09:17:09;;;;;;;261.52;160.00;;;;;;;16.56;41.70;92524.38;5024610;28;20037;-88
2022/04/06 09:19:38;;;;;;;265.80;164.20;;;;;;;16.56;42.34;92521.66;5029209;28;20463;-87
2022/04/06 09:22:07;;;;;;;250.20;150.30;;;;;;;16.59;42.22;92515.16;5015405;28;20049;-84
2022/04/06 09:24:32;;;;;;;259.73;145.52;;;;;;;16.61;42.47;92523.56;5038430;28;20041;-86
2022/04/06 09:27:01;;;;;;;250.18;141.27;;;;;;;16.61;42.49;92524.31;5029407;28;20034;-87
2022/04/06 09:29:27;;;;;;;254.88;145.40;;;;;;;16.58;42.47;92511.69;5013057;28;20037;-87
2022/04/06 09:31:53;;;;;;;223.73;130.25;;;;;;;16.58;42.22;92530.78;5017364;28;20077;-86
2022/04/06 09:34:22;;;;;;;225.85;135.50;;;;;;;16.59;42.39;92526.81;5008415;28;20052;-86
2022/04/06 09:36:50;;;;;;;212.43;125.40;;;;;;;16.61;42.28;92523.56;5023639;28;20037;-88
2022/04/06 09:39:16;;;;;;;195.27;113.22;;;;;;;16.60;42.52;92522.09;5030330;28;20119;-86
2022/04/06 09:41:58;;;;;;;197.20;119.90;;;;;;;16.57;42.16;92523.88;5010696;28;20509;-86
2022/04/06 09:50:19;;;;;;;189.65;107.28;;;;;;;16.58;42.26;92511.69;5029402;28;20390;-87
2022/04/06 09:52:45;;;;;;;184.25;106.72;;;;;;;16.58;41.97;92508.97;5023173;28;20408;-87
2022/04/06 09:55:12;;;;;;;182.00;105.47;;;;;;;16.61;42.15;92496.28;5044947;28;20076;-86
2022/04/06 09:57:45;;;;;;;176.82;103.30;;;;;;;16.61;41.96;92499.00;5021689;28;20042;-86
2022/04/06 10:00:16;;;;;;;161.55;91.65;;;;;;;16.62;42.48;92493.03;5011105;28;20049;-88
2022/04/06 10:02:42;;;;;;;158.98;92.25;;;;;;;16.61;42.34;92491.56;5030252;28;20052;-88
2022/04/06 10:05:10;;;;;;;123.60;61.53;;;;;;;16.65;43.60;92494.75;5043263;28;20127;-86
2022/04/06 10:07:36;;;;;;;126.70;68.13;;;;;;;16.60;43.43;92484.63;5025887;28;20038;-86
2022/04/06 10:10:01;;;;;;;101.22;60.15;;;;;;;16.55;43.37;92488.19;5022249;28;20045;-88
2022/04/06 10:12:28;;;;;;;120.03;70.00;;;;;;;16.60;43.02;92483.91;5012169;28;20045;-88
2022/04/06 10:14:53;;;;;;;108.05;63.63;;;;;;;16.58;43.11;92489.88;5041766;28;20052;-89
2022/04/06 10:17:19;;;;;;;110.75;69.10;;;;;;;16.60;43.10;92486.63;5024807;28;20041;-87
2022/04/06 10:19:48;;;;;;;115.70;68.40;;;;;;;16.59;42.53;92482.41;5030511;28;20033;-88
2022/04/06 10:22:24;;;;;;;104.15;65.25;;;;;;;16.59;42.65;92482.41;5030184;28;20755;-89
2022/04/06 10:24:54;;;;;;;99.82;61.17;;;;;;;16.61;43.08;92471.72;5026617;28;20045;-89
2022/04/06 10:27:26;;;;;;;104.15;65.57;;;;;;;16.62;42.81;92475.94;5030523;28;20048;-87
2022/04/06 10:30:20;;;;;;;112.43;65.68;;;;;;;16.61;42.44;92458.09;5030855;28;20039;-90
2022/04/06 10:32:48;;;;;;;106.78;61.47;;;;;;;16.61;42.48;92458.81;5032416;28;20040;-88
2022/04/06 10:35:21;;;;;;;114.20;54.90;;;;;;;16.60;43.28;92451.16;5030402;28;20106;-88
2022/04/06 10:37:56;;;;;;;107.00;55.72;;;;;;;16.61;43.03;92447.16;5002051;28;20036;-88
2022/04/06 10:40:31;;;;;;;82.03;52.58;;;;;;;16.64;42.60;92451.63;5051284;28;20049;-88
2022/04/06 10:42:56;;;;;;;91.30;52.88;;;;;;;16.63;43.41;92450.13;5020793;28;20162;-88
2022/04/06 10:45:24;;;;;;;87.13;53.08;;;;;;;16.66;42.61;92447.09;5052097;28;20044;-86
2022/04/06 10:48:14;;;;;;;88.80;54.05;;;;;;;16.64;42.33;92433.25;5052483;28;20065;-88
2022/04/06 10:50:41;;;;;;;81.30;47.05;;;;;;;16.68;42.72;92435.66;5046860;28;20045;-88
2022/04/06 10:53:36;;;;;;;75.32;48.50;;;;;;;16.66;42.85;92433.47;5045857;28;20145;-88
2022/04/06 10:56:12;;;;;;;76.45;48.88;;;;;;;16.67;42.34;92431.47;4984081;28;20038;-87
2022/04/06 10:58:55;;;;;;;80.53;47.17;;;;;;;16.68;42.41;92430.19;4983071;28;20045;-89
2022/04/06 11:01:29;;;;;;;74.32;46.67;;;;;;;16.69;42.23;92437.13;5001768;28;20041;-87
2022/04/06 11:04:03;;;;;;;70.72;45.33;;;;;;;16.72;42.42;92430.63;4988388;28;20048;-87
2022/04/06 11:06:40;;;;;;;74.80;44.28;;;;;;;16.68;42.51;92430.91;5017281;28;20041;-88
2022/04/06 11:12:21;;;;;;;119.43;47.67;;;;;;;16.72;42.05;92427.88;4984751;28;20108;-88
2022/04/06 11:14:53;;;;;;;65.72;39.70;;;;;;;16.73;42.54;92421.91;4986883;28;20050;-87
2022/04/06 11:17:45;;;;;;;74.03;40.63;;;;;;;16.72;42.38;92420.44;5025011;28;20271;-90
2022/04/06 11:20:12;;;;;;;105.20;47.38;;;;;;;16.75;42.54;92416.66;5022801;28;20523;-86
2022/04/06 11:22:40;;;;;;;97.40;51.42;;;;;;;16.77;42.40;92419.59;4978816;28;20059;-85
2022/04/06 11:25:17;;;;;;;98.15;46.53;;;;;;;16.73;42.46;92416.44;4987169;28;20043;-90